Time;durP1;ratioP1;P1;durP2;ratioP2;P2;SDS_P1;SDS_P2;PMS_P1;PMS_P2;Temp;Humidity;BMP_temperature;BMP_pressure;BME280_temperature;BME280_humidity;BME280_pressure;Samples;Min_cycle;Max_cycle;Signal;HPM_P1;HPM_P2
2022/09/17 00:00:17;;;;;;;;;;;11.70;99.90;;;;;;5049414;28;19928;-84
2022/09/17 00:02:46;;;;;;;;;;;11.70;99.90;;;;;;5065633;28;20433;-84
2022/09/17 00:05:13;;;;;;;;;;;11.70;99.90;;;;;;5065779;28;20054;-84
2022/09/17 00:07:40;;;;;;;;;;;11.70;99.90;;;;;;5062013;28;20017;-85
2022/09/17 00:10:07;;;;;;;;;;;11.70;99.90;;;;;;5067600;28;19928;-84
2022/09/17 00:12:33;;;;;;;;;;;11.70;99.90;;;;;;5066004;28;20027;-84
2022/09/17 00:15:00;;;;;;;;;;;11.70;99.90;;;;;;5065461;28;20023;-84
2022/09/17 00:17:27;;;;;;;;;;;11.80;99.90;;;;;;5068387;28;20027;-84
2022/09/17 00:19:55;;;;;;;;;;;11.60;99.90;;;;;;5067323;28;19977;-85
2022/09/17 00:22:22;;;;;;;;;;;11.60;99.90;;;;;;5066649;28;19986;-84
2022/09/17 00:24:48;;;;;;;;;;;11.70;99.90;;;;;;5067846;28;19935;-85
2022/09/17 00:27:15;;;;;;;;;;;11.60;99.90;;;;;;5066061;28;19940;-85
2022/09/17 00:29:42;;;;;;;;;;;;;;;;;;5065759;28;19934;-84
2022/09/17 00:32:09;;;;;;;;;;;11.60;99.90;;;;;;5066408;28;19989;-85
2022/09/17 00:34:36;;;;;;;;;;;11.60;99.90;;;;;;5068015;28;19978;-81
2022/09/17 00:37:04;;;;;;;;;;;11.50;99.90;;;;;;5047080;28;19994;-83
2022/09/17 00:39:30;;;;;;;;;;;11.50;99.90;;;;;;5067479;28;19933;-83
2022/09/17 00:41:57;;;;;;;;;;;11.40;99.90;;;;;;5073289;28;19948;-83
2022/09/17 00:44:42;;;;;;;;;;;11.40;99.90;;;;;;5070294;28;19933;-83
2022/09/17 00:47:11;;;;;;;;;;;11.40;99.90;;;;;;5075276;28;19924;-83
2022/09/17 00:49:38;;;;;;;;;;;11.30;99.90;;;;;;5076925;28;19928;-84
2022/09/17 00:52:08;;;;;;;;;;;11.40;99.90;;;;;;5071743;28;19942;-84
2022/09/17 00:54:36;;;;;;;;;;;11.30;99.90;;;;;;5054088;28;20005;-84
2022/09/17 00:57:02;;;;;;;;;;;11.30;99.90;;;;;;5055924;28;19929;-84
2022/09/17 00:59:29;;;;;;;;;;;11.30;99.90;;;;;;5053668;28;19937;-83
2022/09/17 01:01:56;;;;;;;;;;;11.30;99.90;;;;;;5053793;28;19928;-83
2022/09/17 01:04:26;;;;;;;;;;;11.20;99.90;;;;;;5072679;28;20012;-84
2022/09/17 01:07:00;;;;;;;;;;;11.20;99.90;;;;;;5071617;28;19932;-83
2022/09/17 01:09:34;;;;;;;;;;;11.20;99.90;;;;;;5072924;28;19929;-84
2022/09/17 01:12:13;;;;;;;;;;;11.30;99.90;;;;;;5071677;28;19933;-84
2022/09/17 01:14:45;;;;;;;;;;;11.30;99.90;;;;;;5072341;28;19934;-84
2022/09/17 01:17:14;;;;;;;;;;;11.30;99.90;;;;;;5072940;28;19932;-84
2022/09/17 01:19:52;;;;;;;;;;;11.30;99.90;;;;;;5071382;28;19980;-84
2022/09/17 01:22:21;;;;;;;;;;;11.30;99.90;;;;;;5069578;28;19937;-84
2022/09/17 01:24:53;;;;;;;;;;;11.20;99.90;;;;;;5073059;28;19939;-84
2022/09/17 01:27:39;;;;;;;;;;;11.00;99.90;;;;;;5072103;28;19928;-84
2022/09/17 01:30:14;;;;;;;;;;;11.00;99.90;;;;;;5062275;28;19936;-84
2022/09/17 01:32:45;;;;;;;;;;;11.00;99.90;;;;;;5070386;28;19932;-83
2022/09/17 01:35:15;;;;;;;;;;;10.80;99.90;;;;;;5074421;28;20000;-84
2022/09/17 01:37:47;;;;;;;;;;;10.80;99.90;;;;;;5070881;28;19929;-84
2022/09/17 01:40:17;;;;;;;;;;;10.80;99.90;;;;;;5072163;28;20013;-84
2022/09/17 01:42:47;;;;;;;;;;;10.70;99.90;;;;;;5066607;28;19935;-84
2022/09/17 01:45:17;;;;;;;;;;;10.90;99.90;;;;;;5070251;28;19928;-84
2022/09/17 01:47:47;;;;;;;;;;;10.90;99.90;;;;;;5073298;28;20568;-84
2022/09/17 01:50:17;;;;;;;;;;;10.90;99.90;;;;;;5052882;28;20001;-84
2022/09/17 01:52:45;;;;;;;;;;;10.90;99.90;;;;;;5070563;28;19928;-84
2022/09/17 01:55:13;;;;;;;;;;;11.00;99.90;;;;;;5055211;28;21446;-83
2022/09/17 01:57:44;;;;;;;;;;;11.00;99.90;;;;;;5072814;28;19928;-84
2022/09/17 02:00:12;;;;;;;;;;;11.10;99.90;;;;;;5074890;28;19996;-83
2022/09/17 02:02:40;;;;;;;;;;;11.10;99.90;;;;;;5078989;28;20453;-83
2022/09/17 02:05:10;;;;;;;;;;;11.10;99.90;;;;;;5074820;28;19935;-83
2022/09/17 02:07:40;;;;;;;;;;;11.20;99.90;;;;;;5078168;28;19932;-83
2022/09/17 02:10:10;;;;;;;;;;;11.20;99.90;;;;;;5078444;28;19996;-83
2022/09/17 02:12:39;;;;;;;;;;;11.20;99.90;;;;;;5077514;28;19951;-83
2022/09/17 02:15:07;;;;;;;;;;;11.30;99.90;;;;;;5074882;28;20360;-83
2022/09/17 02:17:37;;;;;;;;;;;11.30;99.90;;;;;;5074843;28;20014;-83
2022/09/17 02:20:03;;;;;;;;;;;11.30;99.90;;;;;;5053008;28;19978;-83
2022/09/17 02:22:36;;;;;;;;;;;11.30;99.90;;;;;;5072544;28;20031;-84
2022/09/17 02:25:06;;;;;;;;;;;11.30;99.90;;;;;;5057226;28;19936;-83
2022/09/17 02:27:44;;;;;;;;;;;11.40;99.90;;;;;;5073971;28;19932;-83
2022/09/17 02:30:11;;;;;;;;;;;11.40;99.90;;;;;;5072459;28;20116;-83
2022/09/17 02:32:38;;;;;;;;;;;11.40;99.90;;;;;;5070185;28;19932;-83
2022/09/17 02:35:06;;;;;;;;;;;11.40;99.90;;;;;;5052404;28;20371;-83
2022/09/17 02:37:34;;;;;;;;;;;11.40;99.90;;;;;;5068467;28;19958;-84
2022/09/17 02:40:01;;;;;;;;;;;11.40;99.90;;;;;;5051899;28;19951;-83
2022/09/17 02:42:31;;;;;;;;;;;11.40;99.90;;;;;;5054520;28;19951;-83
2022/09/17 02:45:02;;;;;;;;;;;11.40;99.90;;;;;;5074581;28;19928;-83
2022/09/17 02:47:36;;;;;;;;;;;11.30;99.90;;;;;;5077355;28;19950;-83
2022/09/17 02:50:13;;;;;;;;;;;11.30;99.90;;;;;;5079015;28;19932;-83
2022/09/17 02:52:46;;;;;;;;;;;11.30;99.90;;;;;;5083335;28;19970;-84
2022/09/17 02:55:17;;;;;;;;;;;11.20;99.90;;;;;;5084274;28;19928;-84
2022/09/17 02:57:46;;;;;;;;;;;11.00;99.90;;;;;;5064864;28;19964;-83
2022/09/17 03:00:14;;;;;;;;;;;11.00;99.90;;;;;;5077944;28;19964;-84
2022/09/17 03:02:43;;;;;;;;;;;10.90;99.90;;;;;;5076163;28;19933;-84
2022/09/17 03:05:10;;;;;;;;;;;10.90;99.90;;;;;;5076824;28;19932;-83
2022/09/17 03:07:37;;;;;;;;;;;10.90;99.90;;;;;;5078261;28;20366;-83
2022/09/17 03:10:06;;;;;;;;;;;10.90;99.90;;;;;;5078376;28;19933;-84
2022/09/17 03:12:33;;;;;;;;;;;10.90;99.90;;;;;;5067069;28;19940;-83
2022/09/17 03:15:00;;;;;;;;;;;11.00;99.90;;;;;;5081354;28;19936;-84
2022/09/17 03:17:27;;;;;;;;;;;11.20;99.90;;;;;;5062543;28;19974;-83
2022/09/17 03:19:53;;;;;;;;;;;11.00;99.90;;;;;;5078044;28;19951;-84
2022/09/17 03:22:20;;;;;;;;;;;11.10;99.90;;;;;;5079785;28;19981;-84
2022/09/17 03:24:47;;;;;;;;;;;11.10;99.90;;;;;;5079811;28;21270;-83
2022/09/17 03:27:13;;;;;;;;;;;;;;;;;;5077893;28;19936;-84
2022/09/17 03:29:42;;;;;;;;;;;11.30;99.90;;;;;;5076604;28;19940;-83
2022/09/17 03:32:08;;;;;;;;;;;11.30;99.90;;;;;;5076122;28;20014;-83
2022/09/17 03:34:35;;;;;;;;;;;11.40;99.90;;;;;;5077149;28;19956;-83
2022/09/17 03:37:02;;;;;;;;;;;11.40;99.90;;;;;;5077364;28;19977;-84
2022/09/17 03:39:28;;;;;;;;;;;11.40;99.90;;;;;;5058898;28;19962;-83
2022/09/17 03:41:55;;;;;;;;;;;11.50;99.90;;;;;;5075750;28;19932;-83
2022/09/17 03:44:22;;;;;;;;;;;11.40;99.90;;;;;;5076407;28;19933;-84
2022/09/17 03:46:50;;;;;;;;;;;11.40;99.90;;;;;;5076152;28;19959;-83
2022/09/17 03:49:17;;;;;;;;;;;11.50;99.90;;;;;;5076765;28;20050;-83
2022/09/17 03:51:44;;;;;;;;;;;11.50;99.90;;;;;;5058339;28;19928;-84
2022/09/17 03:54:11;;;;;;;;;;;11.50;99.90;;;;;;5076743;28;20473;-83
2022/09/17 03:56:37;;;;;;;;;;;11.50;99.90;;;;;;5076697;28;19960;-84
2022/09/17 03:59:04;;;;;;;;;;;11.60;99.90;;;;;;5056502;28;19940;-83
2022/09/17 04:01:31;;;;;;;;;;;11.60;99.90;;;;;;5075116;28;19932;-83
2022/09/17 04:03:59;;;;;;;;;;;11.60;99.90;;;;;;5076981;28;19924;-83
2022/09/17 04:06:25;;;;;;;;;;;11.50;99.90;;;;;;5076768;28;19990;-83
2022/09/17 04:08:52;;;;;;;;;;;11.50;99.90;;;;;;5076549;28;20653;-83
2022/09/17 04:11:19;;;;;;;;;;;11.40;99.90;;;;;;5075678;28;19928;-84
2022/09/17 04:13:45;;;;;;;;;;;11.40;99.90;;;;;;5075194;28;19932;-83
2022/09/17 04:16:12;;;;;;;;;;;11.40;99.90;;;;;;5072699;28;19928;-84
2022/09/17 04:18:39;;;;;;;;;;;11.40;99.90;;;;;;5071463;28;19955;-84
2022/09/17 04:21:07;;;;;;;;;;;11.40;99.90;;;;;;5071216;28;19947;-85
2022/09/17 04:23:33;;;;;;;;;;;11.40;99.90;;;;;;5069731;28;19935;-85
2022/09/17 04:26:00;;;;;;;;;;;11.50;99.90;;;;;;5070949;28;20625;-85
2022/09/17 04:28:27;;;;;;;;;;;11.50;99.90;;;;;;5053199;28;19939;-85
2022/09/17 04:30:54;;;;;;;;;;;11.50;99.90;;;;;;5075203;28;20503;-84
2022/09/17 04:33:20;;;;;;;;;;;11.50;99.90;;;;;;5057887;28;20549;-85
2022/09/17 04:35:48;;;;;;;;;;;11.50;99.90;;;;;;5058735;28;19978;-85
2022/09/17 04:38:17;;;;;;;;;;;11.50;99.90;;;;;;5076111;28;20499;-84
2022/09/17 04:40:45;;;;;;;;;;;11.50;99.90;;;;;;5080204;28;19936;-85
2022/09/17 04:43:12;;;;;;;;;;;11.50;99.90;;;;;;5054969;28;19933;-84
2022/09/17 04:45:38;;;;;;;;;;;11.50;99.90;;;;;;5059521;28;19951;-85
2022/09/17 04:48:05;;;;;;;;;;;11.50;99.90;;;;;;5080023;28;20828;-84
2022/09/17 04:50:32;;;;;;;;;;;11.50;99.90;;;;;;5079599;28;19936;-85
2022/09/17 04:52:59;;;;;;;;;;;11.50;99.90;;;;;;5079615;28;19931;-85
2022/09/17 04:55:27;;;;;;;;;;;11.40;99.90;;;;;;5080355;28;20917;-85
2022/09/17 04:57:54;;;;;;;;;;;11.40;99.90;;;;;;5075958;28;19959;-85
2022/09/17 05:00:23;;;;;;;;;;;11.30;99.90;;;;;;5074882;28;19941;-84
2022/09/17 05:02:50;;;;;;;;;;;11.20;99.90;;;;;;5072456;28;19933;-84
2022/09/17 05:05:17;;;;;;;;;;;11.10;99.90;;;;;;5073572;28;20355;-85
2022/09/17 05:07:44;;;;;;;;;;;11.00;99.90;;;;;;5070219;28;19925;-84
2022/09/17 05:10:12;;;;;;;;;;;11.00;99.90;;;;;;5069522;28;20391;-85
2022/09/17 05:12:40;;;;;;;;;;;10.90;99.90;;;;;;5073042;28;19929;-83
2022/09/17 05:15:07;;;;;;;;;;;10.80;99.90;;;;;;5070698;28;20480;-83
2022/09/17 05:17:34;;;;;;;;;;;10.80;99.90;;;;;;5068497;28;20048;-83
2022/09/17 05:20:00;;;;;;;;;;;10.80;99.90;;;;;;5066012;28;19933;-83
2022/09/17 05:22:27;;;;;;;;;;;10.80;99.90;;;;;;5061407;28;19929;-83
2022/09/17 05:24:54;;;;;;;;;;;10.80;99.90;;;;;;5053440;28;20130;-83
2022/09/17 05:27:20;;;;;;;;;;;10.80;99.90;;;;;;5052607;28;19959;-82
2022/09/17 05:29:48;;;;;;;;;;;10.80;99.90;;;;;;5052547;28;19974;-82
2022/09/17 05:32:15;;;;;;;;;;;10.80;99.90;;;;;;5051498;28;19932;-83
2022/09/17 05:34:42;;;;;;;;;;;10.90;99.90;;;;;;5069186;28;19978;-83
2022/09/17 05:37:10;;;;;;;;;;;11.00;99.90;;;;;;5070857;28;20297;-84
2022/09/17 05:39:37;;;;;;;;;;;11.10;99.90;;;;;;5072950;28;19931;-82
2022/09/17 05:42:04;;;;;;;;;;;11.10;99.90;;;;;;5072011;28;19932;-82
2022/09/17 05:44:31;;;;;;;;;;;11.20;99.90;;;;;;5072764;28;19925;-83
2022/09/17 05:46:59;;;;;;;;;;;11.30;99.90;;;;;;5071315;28;19928;-82
2022/09/17 05:49:26;;;;;;;;;;;11.40;99.90;;;;;;5059014;28;20349;-82
2022/09/17 05:51:52;;;;;;;;;;;11.40;99.90;;;;;;5067848;28;19928;-82
2022/09/17 05:54:19;;;;;;;;;;;11.50;99.90;;;;;;5067046;28;19925;-81
2022/09/17 05:56:46;;;;;;;;;;;11.50;99.90;;;;;;5063833;28;19929;-82
2022/09/17 05:59:14;;;;;;;;;;;11.50;99.90;;;;;;5054524;28;19929;-81
2022/09/17 06:01:41;;;;;;;;;;;11.50;99.90;;;;;;5070115;28;19932;-83
2022/09/17 06:04:10;;;;;;;;;;;11.60;99.90;;;;;;5058715;28;20398;-82
2022/09/17 06:06:37;;;;;;;;;;;11.60;99.90;;;;;;5069308;28;19932;-82
2022/09/17 06:09:04;;;;;;;;;;;11.60;99.90;;;;;;5071711;28;19986;-82
2022/09/17 06:11:31;;;;;;;;;;;11.60;99.90;;;;;;5051927;28;20502;-83
2022/09/17 06:13:58;;;;;;;;;;;11.60;99.90;;;;;;5071253;28;19976;-82
2022/09/17 06:16:24;;;;;;;;;;;11.60;99.90;;;;;;5044438;28;19932;-83
2022/09/17 06:18:52;;;;;;;;;;;11.60;99.90;;;;;;5070379;28;19928;-83
2022/09/17 06:21:21;;;;;;;;;;;11.60;99.90;;;;;;5086309;28;20027;-83
2022/09/17 06:23:48;;;;;;;;;;;11.50;99.90;;;;;;5072452;28;19932;-82
2022/09/17 06:26:15;;;;;;;;;;;11.50;99.90;;;;;;5060537;28;19936;-84
2022/09/17 06:28:42;;;;;;;;;;;11.50;99.90;;;;;;5051050;28;19977;-84
2022/09/17 06:31:09;;;;;;;;;;;11.50;99.90;;;;;;5037386;28;19936;-83
2022/09/17 06:33:36;;;;;;;;;;;11.50;99.90;;;;;;5041666;28;19925;-84
2022/09/17 06:36:04;;;;;;;;;;;11.40;99.90;;;;;;5059228;28;19928;-82
2022/09/17 06:38:33;;;;;;;;;;;11.40;99.90;;;;;;5036061;28;19933;-83
2022/09/17 06:41:00;;;;;;;;;;;11.40;99.90;;;;;;5052044;28;19925;-82
2022/09/17 06:43:27;;;;;;;;;;;11.40;99.90;;;;;;5068172;28;19978;-85
2022/09/17 06:45:59;;;;;;;;;;;11.80;99.90;;;;;;5052908;28;19929;-82
2022/09/17 06:48:27;;;;;;;;;;;11.90;99.90;;;;;;5059301;28;19924;-83
2022/09/17 06:50:54;;;;;;;;;;;12.10;99.90;;;;;;5050262;28;19976;-86
2022/09/17 06:53:21;;;;;;;;;;;12.30;99.90;;;;;;5069958;28;19931;-82
2022/09/17 06:55:49;;;;;;;;;;;12.40;99.90;;;;;;5068537;28;19924;-84
2022/09/17 06:58:16;;;;;;;;;;;12.60;99.90;;;;;;5051887;28;20360;-85
2022/09/17 07:00:42;;;;;;;;;;;12.70;99.90;;;;;;5071022;28;19929;-84
2022/09/17 07:03:09;;;;;;;;;;;12.90;99.90;;;;;;5070344;28;19932;-84
2022/09/17 07:05:36;;;;;;;;;;;13.60;99.90;;;;;;5069240;28;20019;-83
2022/09/17 07:08:04;;;;;;;;;;;14.60;99.90;;;;;;5056205;28;19933;-83
2022/09/17 07:10:31;;;;;;;;;;;15.40;99.90;;;;;;5066498;28;20023;-84
2022/09/17 07:12:59;;;;;;;;;;;16.20;99.90;;;;;;5045842;28;19959;-85
2022/09/17 07:15:26;;;;;;;;;;;17.10;99.90;;;;;;5069371;28;19939;-85
2022/09/17 07:17:53;;;;;;;;;;;17.70;99.90;;;;;;5053281;28;19935;-83
2022/09/17 07:20:20;;;;;;;;;;;18.20;99.90;;;;;;5063581;28;20584;-83
2022/09/17 07:22:54;;;;;;;;;;;18.50;99.90;;;;;;5059331;28;19935;-84
2022/09/17 07:25:33;;;;;;;;;;;18.90;99.90;;;;;;5051397;28;19928;-84
2022/09/17 07:28:10;;;;;;;;;;;19.30;99.90;;;;;;5071128;28;19929;-83
2022/09/17 07:30:40;;;;;;;;;;;19.60;99.90;;;;;;5067265;28;19963;-83
2022/09/17 07:33:12;;;;;;;;;;;19.90;99.90;;;;;;5045863;28;19964;-85
2022/09/17 07:35:44;;;;;;;;;;;20.20;99.90;;;;;;5052795;28;20027;-85
2022/09/17 07:38:20;;;;;;;;;;;20.50;99.90;;;;;;5062180;28;19971;-84
2022/09/17 07:40:52;;;;;;;;;;;20.20;99.90;;;;;;5042016;28;20627;-84
2022/09/17 07:43:24;;;;;;;;;;;19.40;99.90;;;;;;5066555;28;19924;-84
2022/09/17 07:45:54;;;;;;;;;;;18.90;99.90;;;;;;5051802;28;19925;-84
2022/09/17 07:48:24;;;;;;;;;;;18.70;99.90;;;;;;5066549;28;20346;-85
2022/09/17 07:50:51;;;;;;;;;;;18.60;99.90;;;;;;5054061;28;19936;-84
2022/09/17 07:53:23;;;;;;;;;;;19.00;99.90;;;;;;5053021;28;20386;-85
2022/09/17 07:55:51;;;;;;;;;;;19.40;99.90;;;;;;5067694;28;19924;-84
2022/09/17 07:58:18;;;;;;;;;;;20.00;99.90;;;;;;5065191;28;20408;-86
2022/09/17 08:00:47;;;;;;;;;;;20.50;99.90;;;;;;5082010;28;19924;-86
2022/09/17 08:03:13;;;;;;;;;;;20.80;99.90;;;;;;5043667;28;20022;-85
2022/09/17 08:05:40;;;;;;;;;;;21.00;99.90;;;;;;5064382;28;19932;-86
2022/09/17 08:08:07;;;;;;;;;;;21.20;99.90;;;;;;5040609;28;19928;-90
2022/09/17 08:10:34;;;;;;;;;;;21.10;99.90;;;;;;5063540;28;19928;-86
2022/09/17 08:13:01;;;;;;;;;;;20.90;99.90;;;;;;5047267;28;19925;-86
2022/09/17 08:15:28;;;;;;;;;;;20.80;99.90;;;;;;5030942;28;19929;-86
2022/09/17 08:17:56;;;;;;;;;;;21.00;99.90;;;;;;5061487;28;19929;-85
2022/09/17 08:20:28;;;;;;;;;;;21.10;99.90;;;;;;5052023;28;19951;-87
2022/09/17 08:22:59;;;;;;;;;;;21.10;99.90;;;;;;5051926;28;19929;-84
2022/09/17 08:25:26;;;;;;;;;;;21.10;99.90;;;;;;5057781;28;19927;-87
2022/09/17 08:27:53;;;;;;;;;;;20.90;99.90;;;;;;5088646;28;20081;-87
2022/09/17 08:30:20;;;;;;;;;;;20.80;99.90;;;;;;5071766;28;20314;-84
2022/09/17 08:32:46;;;;;;;;;;;20.90;99.90;;;;;;5064277;28;19936;-85
2022/09/17 08:35:16;;;;;;;;;;;21.00;99.90;;;;;;5081887;28;20027;-84
2022/09/17 08:37:43;;;;;;;;;;;20.70;99.90;;;;;;5080511;28;19939;-86
2022/09/17 08:40:13;;;;;;;;;;;20.60;99.90;;;;;;5061544;28;20792;-84
2022/09/17 08:42:46;;;;;;;;;;;20.50;99.90;;;;;;5071310;28;19954;-84
2022/09/17 08:45:17;;;;;;;;;;;20.30;99.90;;;;;;5046035;28;20014;-83
2022/09/17 08:47:47;;;;;;;;;;;20.10;99.90;;;;;;5059868;28;19928;-85
2022/09/17 08:50:16;;;;;;;;;;;19.90;99.90;;;;;;5077570;28;20002;-84
2022/09/17 08:52:57;;;;;;;;;;;19.50;99.90;;;;;;5080156;28;20387;-83
2022/09/17 08:55:30;;;;;;;;;;;19.30;99.90;;;;;;5068268;28;19932;-83
2022/09/17 08:58:01;;;;;;;;;;;19.10;99.90;;;;;;5075558;28;19925;-83
2022/09/17 09:00:31;;;;;;;;;;;19.10;99.90;;;;;;5068931;28;20029;-84
2022/09/17 09:03:03;;;;;;;;;;;19.20;99.90;;;;;;5080633;28;20010;-84
2022/09/17 09:05:43;;;;;;;;;;;19.40;99.90;;;;;;5057364;28;19924;-84
2022/09/17 09:08:13;;;;;;;;;;;19.80;99.90;;;;;;5067588;28;19960;-84
2022/09/17 09:10:45;;;;;;;;;;;20.00;99.90;;;;;;5045025;28;19928;-83
2022/09/17 09:13:13;;;;;;;;;;;19.80;99.90;;;;;;5033004;28;19928;-84
2022/09/17 09:15:43;;;;;;;;;;;19.50;99.90;;;;;;5056772;28;19929;-83
2022/09/17 09:18:15;;;;;;;;;;;19.30;99.90;;;;;;5064254;28;19932;-84
2022/09/17 09:20:48;;;;;;;;;;;19.20;99.90;;;;;;5084196;28;19928;-85
2022/09/17 09:23:17;;;;;;;;;;;19.10;99.90;;;;;;5058584;28;19932;-84
2022/09/17 09:25:51;;;;;;;;;;;18.80;99.90;;;;;;5080739;28;20523;-86
2022/09/17 09:28:24;;;;;;;;;;;18.60;99.90;;;;;;5073900;28;20027;-84
2022/09/17 09:31:04;;;;;;;;;;;18.60;99.90;;;;;;5056026;28;19950;-84
2022/09/17 09:33:32;;;;;;;;;;;18.70;99.90;;;;;;5072422;28;19932;-85
2022/09/17 09:36:01;;;;;;;;;;;18.60;99.90;;;;;;5060448;28;20009;-85
2022/09/17 09:38:31;;;;;;;;;;;18.50;99.90;;;;;;5064540;28;19932;-85
2022/09/17 09:41:00;;;;;;;;;;;18.40;99.90;;;;;;5062898;28;20034;-85
2022/09/17 09:43:31;;;;;;;;;;;18.30;99.90;;;;;;5038049;28;20347;-84
2022/09/17 09:46:04;;;;;;;;;;;18.10;99.90;;;;;;5078104;28;19932;-84
2022/09/17 09:48:34;;;;;;;;;;;18.10;99.90;;;;;;5060402;28;21385;-84
2022/09/17 09:51:09;;;;;;;;;;;18.10;99.90;;;;;;5038344;28;20006;-85
2022/09/17 09:53:41;;;;;;;;;;;18.10;99.90;;;;;;5046052;28;19935;-85
2022/09/17 09:56:21;;;;;;;;;;;18.00;99.90;;;;;;5073593;28;19928;-85
2022/09/17 09:58:48;;;;;;;;;;;18.00;99.90;;;;;;5059116;28;20152;-85
2022/09/17 10:01:16;;;;;;;;;;;18.20;99.90;;;;;;5082081;28;19970;-85
2022/09/17 10:03:44;;;;;;;;;;;18.30;99.90;;;;;;5071729;28;19964;-85
2022/09/17 10:06:13;;;;;;;;;;;18.50;99.90;;;;;;5073188;28;19928;-86
2022/09/17 10:08:41;;;;;;;;;;;18.70;99.90;;;;;;5091715;28;19985;-86
2022/09/17 10:11:21;;;;;;;;;;;18.90;99.90;;;;;;5076870;28;19929;-86
2022/09/17 10:13:48;;;;;;;;;;;19.00;99.90;;;;;;5079631;28;19978;-86
2022/09/17 10:16:17;;;;;;;;;;;18.90;99.90;;;;;;5060326;28;20004;-84
2022/09/17 10:18:46;;;;;;;;;;;18.80;99.90;;;;;;5053779;28;19936;-85
2022/09/17 10:21:20;;;;;;;;;;;18.70;99.90;;;;;;5083152;28;19928;-85
2022/09/17 10:23:47;;;;;;;;;;;18.60;99.90;;;;;;5066833;28;19935;-85
2022/09/17 10:26:21;;;;;;;;;;;18.60;99.90;;;;;;5091129;28;19935;-87
2022/09/17 10:28:49;;;;;;;;;;;18.60;99.90;;;;;;5064887;28;19928;-86
2022/09/17 10:31:16;;;;;;;;;;;18.60;99.90;;;;;;5078581;28;19939;-87
2022/09/17 10:33:54;;;;;;;;;;;18.50;99.90;;;;;;5084981;28;19928;-89
2022/09/17 10:36:41;;;;;;;;;;;17.90;99.90;;;;;;5084530;28;20344;-86
2022/09/17 10:39:29;;;;;;;;;;;17.20;99.90;;;;;;5053898;28;20463;-85
2022/09/17 10:41:56;;;;;;;;;;;16.80;99.90;;;;;;5062099;28;19932;-87
2022/09/17 10:44:23;;;;;;;;;;;16.50;99.90;;;;;;5062118;28;20433;-86
2022/09/17 10:46:51;;;;;;;;;;;16.50;99.90;;;;;;5054191;28;19924;-87
2022/09/17 10:49:22;;;;;;;;;;;16.50;99.90;;;;;;5056105;28;19955;-87
2022/09/17 10:51:50;;;;;;;;;;;16.50;99.90;;;;;;5052764;28;19933;-86
2022/09/17 10:54:28;;;;;;;;;;;16.40;99.90;;;;;;5034715;28;19939;-86
2022/09/17 10:56:57;;;;;;;;;;;16.20;99.90;;;;;;5054728;28;19933;-86
2022/09/17 10:59:34;;;;;;;;;;;16.20;99.90;;;;;;5053601;28;20485;-86
2022/09/17 11:02:08;;;;;;;;;;;16.30;99.90;;;;;;5034935;28;20302;-86
2022/09/17 11:04:42;;;;;;;;;;;16.50;99.90;;;;;;5055885;28;19928;-86
2022/09/17 11:07:24;;;;;;;;;;;16.90;99.90;;;;;;5068261;28;19928;-86
2022/09/17 11:09:55;;;;;;;;;;;17.30;99.90;;;;;;5064487;28;19950;-87
2022/09/17 11:12:28;;;;;;;;;;;17.90;99.90;;;;;;5075632;28;19948;-86
2022/09/17 11:14:59;;;;;;;;;;;18.40;99.90;;;;;;5071665;28;19936;-86
2022/09/17 11:17:39;;;;;;;;;;;18.50;99.90;;;;;;5064968;28;19929;-87
2022/09/17 11:20:09;;;;;;;;;;;18.50;99.90;;;;;;5064067;28;19951;-87
2022/09/17 11:22:41;;;;;;;;;;;18.20;99.90;;;;;;5069918;28;19936;-86
2022/09/17 11:25:19;;;;;;;;;;;17.80;99.90;;;;;;5053798;28;20035;-87
2022/09/17 11:27:58;;;;;;;;;;;17.20;99.90;;;;;;5069316;28;20433;-86
2022/09/17 11:30:27;;;;;;;;;;;16.60;99.90;;;;;;5053800;28;20031;-88
2022/09/17 11:33:13;;;;;;;;;;;16.10;99.90;;;;;;5071193;28;19928;-86
2022/09/17 11:35:43;;;;;;;;;;;15.70;99.90;;;;;;5052811;28;19928;-86
2022/09/17 11:38:12;;;;;;;;;;;15.50;99.90;;;;;;5054198;28;19928;-85
2022/09/17 11:40:43;;;;;;;;;;;15.40;99.90;;;;;;5071771;28;20027;-86
2022/09/17 11:43:18;;;;;;;;;;;15.30;99.90;;;;;;5071299;28;19935;-86
2022/09/17 11:45:50;;;;;;;;;;;15.10;99.90;;;;;;5074886;28;20032;-85
2022/09/17 11:48:20;;;;;;;;;;;15.00;99.90;;;;;;5074451;28;20356;-85
2022/09/17 11:50:49;;;;;;;;;;;14.80;99.90;;;;;;5071633;28;19929;-85
2022/09/17 11:53:19;;;;;;;;;;;14.60;99.90;;;;;;5072576;28;19943;-85
2022/09/17 11:55:49;;;;;;;;;;;14.60;99.90;;;;;;5072511;28;19928;-85
2022/09/17 11:58:19;;;;;;;;;;;14.60;99.90;;;;;;5072282;28;20026;-85
2022/09/17 12:00:49;;;;;;;;;;;14.60;99.90;;;;;;5071929;28;19928;-85
2022/09/17 12:03:17;;;;;;;;;;;14.60;99.90;;;;;;5063067;28;19952;-85
2022/09/17 12:05:46;;;;;;;;;;;14.50;99.90;;;;;;5053773;28;19989;-84
2022/09/17 12:08:15;;;;;;;;;;;14.50;99.90;;;;;;5070693;28;19928;-85
2022/09/17 12:10:44;;;;;;;;;;;14.40;99.90;;;;;;5071505;28;19955;-84
2022/09/17 12:13:19;;;;;;;;;;;14.20;99.90;;;;;;5052441;28;19931;-85
2022/09/17 12:15:48;;;;;;;;;;;14.00;99.90;;;;;;5071404;28;19929;-85
2022/09/17 12:18:22;;;;;;;;;;;13.80;99.90;;;;;;5071260;28;19924;-84
2022/09/17 12:20:52;;;;;;;;;;;13.70;99.90;;;;;;5054121;28;19925;-85
2022/09/17 12:23:21;;;;;;;;;;;13.40;99.90;;;;;;5072155;28;20385;-84
2022/09/17 12:25:52;;;;;;;;;;;13.30;99.90;;;;;;5079271;28;20011;-85
2022/09/17 12:28:23;;;;;;;;;;;13.30;99.90;;;;;;5059881;28;19928;-85
2022/09/17 12:30:55;;;;;;;;;;;13.40;99.90;;;;;;5052778;28;19932;-86
2022/09/17 12:33:24;;;;;;;;;;;13.50;99.90;;;;;;5069970;28;20299;-85
2022/09/17 12:36:06;;;;;;;;;;;13.70;99.90;;;;;;5071701;28;19936;-85
2022/09/17 12:38:41;;;;;;;;;;;13.90;99.90;;;;;;5069805;28;19935;-86
2022/09/17 12:41:13;;;;;;;;;;;14.20;99.90;;;;;;5069597;28;19986;-84
2022/09/17 12:43:50;;;;;;;;;;;14.50;99.90;;;;;;5047066;28;19936;-85
2022/09/17 12:46:25;;;;;;;;;;;14.80;99.90;;;;;;5068331;28;19994;-85
2022/09/17 12:48:59;;;;;;;;;;;15.10;99.90;;;;;;5059083;28;20759;-86
2022/09/17 12:51:35;;;;;;;;;;;15.40;99.90;;;;;;5077865;28;19928;-84
2022/09/17 12:54:07;;;;;;;;;;;15.80;99.90;;;;;;5084574;28;19932;-83
2022/09/17 12:56:42;;;;;;;;;;;16.10;99.90;;;;;;5077617;28;20387;-84
2022/09/17 12:59:18;;;;;;;;;;;16.50;99.90;;;;;;5068042;28;19939;-84
2022/09/17 13:01:48;;;;;;;;;;;16.50;99.90;;;;;;5082788;28;20628;-84
2022/09/17 13:04:20;;;;;;;;;;;16.70;99.90;;;;;;5078620;28;19939;-84
2022/09/17 13:07:06;;;;;;;;;;;16.90;99.90;;;;;;5074912;28;19969;-84
2022/09/17 13:09:47;;;;;;;;;;;17.00;99.90;;;;;;5074413;28;19928;-83
2022/09/17 13:12:23;;;;;;;;;;;17.20;99.90;;;;;;5089466;28;19928;-83
2022/09/17 13:15:02;;;;;;;;;;;17.30;99.90;;;;;;5083990;28;19932;-84
2022/09/17 13:17:33;;;;;;;;;;;17.60;99.90;;;;;;5062310;28;19929;-84
2022/09/17 13:20:02;;;;;;;;;;;17.50;99.90;;;;;;5090784;28;19943;-84
2022/09/17 13:22:32;;;;;;;;;;;17.60;99.90;;;;;;5081477;28;19933;-84
2022/09/17 13:25:03;;;;;;;;;;;17.70;99.90;;;;;;5084556;28;19924;-84
2022/09/17 13:27:30;;;;;;;;;;;17.90;99.90;;;;;;5049893;28;19960;-84
2022/09/17 13:29:57;;;;;;;;;;;17.90;99.90;;;;;;5065936;28;19924;-86
2022/09/17 13:32:45;;;;;;;;;;;18.20;99.90;;;;;;5081317;28;20302;-86
2022/09/17 13:35:36;;;;;;;;;;;18.50;99.90;;;;;;5083322;28;19932;-84
2022/09/17 13:38:03;;;;;;;;;;;18.60;99.90;;;;;;5057354;28;19932;-84
2022/09/17 13:40:30;;;;;;;;;;;18.80;99.90;;;;;;5059564;28;19931;-87
2022/09/17 13:42:58;;;;;;;;;;;18.60;99.90;;;;;;5079661;28;19978;-85
2022/09/17 13:45:26;;;;;;;;;;;18.40;99.90;;;;;;5096318;28;19933;-90
2022/09/17 13:47:55;;;;;;;;;;;18.00;99.90;;;;;;5084740;28;19989;-85
2022/09/17 13:50:26;;;;;;;;;;;17.10;99.90;;;;;;5077136;28;19928;-85
2022/09/17 13:52:54;;;;;;;;;;;15.70;99.90;;;;;;5059054;28;19928;-82
2022/09/17 13:58:23;;;;;;;;;;;13.90;99.90;;;;;;5049492;28;19924;-83
2022/09/17 14:00:51;;;;;;;;;;;13.90;99.90;;;;;;5065554;28;19955;-83
2022/09/17 14:03:47;;;;;;;;;;;13.60;99.90;;;;;;5051289;28;19935;-84
2022/09/17 14:06:33;;;;;;;;;;;13.30;99.90;;;;;;5066241;28;19925;-83
2022/09/17 14:09:21;;;;;;;;;;;12.90;99.90;;;;;;5067336;28;19925;-82
2022/09/17 14:11:47;;;;;;;;;;;12.70;99.90;;;;;;5059412;28;19955;-85
2022/09/17 14:14:39;;;;;;;;;;;12.70;99.90;;;;;;5084749;28;19928;-84
2022/09/17 14:17:07;;;;;;;;;;;12.80;99.90;;;;;;5073430;28;19924;-84
2022/09/17 14:19:36;;;;;;;;;;;12.90;99.90;;;;;;5065608;28;19928;-84
2022/09/17 14:22:13;;;;;;;;;;;13.00;99.90;;;;;;5087069;28;19928;-84
2022/09/17 14:24:47;;;;;;;;;;;13.10;99.90;;;;;;5065476;28;19939;-84
2022/09/17 14:27:17;;;;;;;;;;;13.10;99.90;;;;;;5074324;28;20015;-84
2022/09/17 14:29:55;;;;;;;;;;;13.20;99.90;;;;;;5068342;28;19932;-84
2022/09/17 14:32:24;;;;;;;;;;;13.30;99.90;;;;;;5085547;28;19928;-84
2022/09/17 14:34:51;;;;;;;;;;;13.20;99.90;;;;;;5076955;28;19936;-84
2022/09/17 14:37:20;;;;;;;;;;;13.20;99.90;;;;;;5079553;28;20037;-84